createdAt,value
2018-09-27T19:23:50.420Z,1010.20
2018-09-27T19:24:50.415Z,1010.18
2018-09-27T19:25:50.383Z,1010.20
2018-09-27T19:26:50.371Z,1010.16
2018-09-27T19:27:50.356Z,1010.11
2018-09-27T19:28:50.346Z,1010.13
2018-09-27T19:29:50.333Z,1010.12
2018-09-27T19:30:50.343Z,1010.11
2018-09-27T19:31:50.673Z,1010.13
2018-09-27T19:32:50.290Z,1010.13
2018-09-27T19:33:50.289Z,1010.11
2018-09-27T19:34:50.339Z,1010.18
2018-09-27T19:35:50.262Z,1010.16
2018-09-27T19:36:50.247Z,1010.13
2018-09-27T19:37:50.288Z,1010.11
2018-09-27T19:38:50.527Z,1010.16
2018-09-27T19:39:50.277Z,1010.17
2018-09-27T19:40:50.248Z,1010.12
2018-09-27T19:41:50.190Z,1010.13
2018-09-27T19:42:50.174Z,1010.19
2018-09-27T19:43:50.165Z,1010.15
2018-09-27T19:44:50.155Z,1010.12
2018-09-27T19:45:50.139Z,1010.11
2018-09-27T19:46:50.157Z,1010.06
2018-09-27T19:47:50.114Z,1010.07
2018-09-27T19:48:50.112Z,1010.14
2018-09-27T19:49:50.091Z,1010.14
2018-09-27T19:50:50.080Z,1010.14
2018-09-27T19:51:50.099Z,1010.12
2018-09-27T19:52:50.065Z,1010.10
2018-09-27T19:53:50.047Z,1010.06
2018-09-27T19:54:50.034Z,1010.08
2018-09-27T19:55:50.058Z,1010.07
2018-09-27T19:56:50.017Z,1010.09
2018-09-27T19:57:50.009Z,1010.14
2018-09-27T19:58:49.993Z,1010.08
2018-09-27T19:59:49.974Z,1010.10
2018-09-27T20:00:49.973Z,1010.12
2018-09-27T20:01:49.974Z,1010.12
2018-09-27T20:02:49.946Z,1010.06
2018-09-27T20:03:49.931Z,1010.06
2018-09-27T20:04:49.922Z,1010.05
2018-09-27T20:05:49.909Z,1010.07
2018-09-27T20:06:49.932Z,1010.03
2018-09-27T20:07:49.880Z,1010.02
2018-09-27T20:08:49.878Z,1009.97
2018-09-27T20:09:49.857Z,1009.98
2018-09-27T20:10:49.856Z,1010.00
2018-09-27T20:11:49.839Z,1009.99
2018-09-27T20:12:49.848Z,1009.98
2018-09-27T20:13:49.816Z,1009.96
2018-09-27T20:14:49.799Z,1009.88
2018-09-27T20:15:49.795Z,1009.92
2018-09-27T20:16:49.839Z,1009.98
2018-09-27T20:17:49.799Z,1009.91
2018-09-27T20:18:49.760Z,1009.90
2018-09-27T20:19:49.739Z,1009.92
2018-09-27T20:20:49.729Z,1009.94
2018-09-27T20:21:49.721Z,1009.99
2018-09-27T20:22:49.769Z,1009.91
2018-09-27T20:23:49.721Z,1009.97
2018-09-27T20:24:49.682Z,1010.00
2018-09-27T20:25:49.679Z,1010.01
2018-09-27T20:26:49.654Z,1009.97
2018-09-27T20:27:49.647Z,1010.01
2018-09-27T20:28:49.659Z,1010.00
2018-09-27T20:29:49.623Z,1010.00
2018-09-27T20:30:49.616Z,1010.01
2018-09-27T20:31:49.596Z,1010.00
2018-09-27T20:32:49.588Z,1010.00
2018-09-27T20:33:49.595Z,1009.94
2018-09-27T20:34:49.604Z,1009.99
2018-09-27T20:35:49.558Z,1009.95
2018-09-27T20:36:49.539Z,1009.92
2018-09-27T20:37:49.531Z,1010.03
2018-09-27T20:38:49.546Z,1010.02
2018-09-27T20:39:49.500Z,1010.00
2018-09-27T20:40:49.501Z,1009.95
2018-09-27T20:41:49.479Z,1010.06
2018-09-27T20:42:49.469Z,1009.95
2018-09-27T20:43:49.484Z,1010.01
2018-09-27T20:44:49.454Z,1010.03
2018-09-27T20:45:49.438Z,1009.99
2018-09-27T20:46:49.421Z,1010.05
2018-09-27T20:47:49.414Z,1010.04
2018-09-27T20:48:49.434Z,1010.02
2018-09-27T20:49:49.424Z,1009.99
2018-09-27T20:50:49.392Z,1010.08
2018-09-27T20:51:49.369Z,1010.02
2018-09-27T20:52:49.386Z,1010.07
2018-09-27T20:53:49.339Z,1010.06
2018-09-27T20:54:49.406Z,1010.06
2018-09-27T20:55:49.321Z,1010.03
2018-09-27T20:56:49.307Z,1009.99
2018-09-27T20:57:49.300Z,1009.97
2018-09-27T20:58:49.310Z,1010.01
2018-09-27T20:59:49.277Z,1010.02
2018-09-27T21:00:49.258Z,1010.01
2018-09-27T21:01:49.251Z,1009.98
2018-09-27T21:02:49.237Z,1010.00
2018-09-27T21:03:49.221Z,1010.02
2018-09-27T21:04:49.243Z,1010.01
2018-09-27T21:05:49.205Z,1010.01
2018-09-27T21:06:49.195Z,1010.05
2018-09-27T21:07:49.179Z,1010.01
2018-09-27T21:08:49.169Z,1009.94
2018-09-27T21:09:49.153Z,1009.98
2018-09-27T21:10:49.163Z,1009.93
2018-09-27T21:11:49.137Z,1009.92
2018-09-27T21:12:49.120Z,1009.90
2018-09-27T21:13:49.110Z,1009.91
2018-09-27T21:14:49.102Z,1009.93
2018-09-27T21:15:49.109Z,1009.92
2018-09-27T21:16:49.079Z,1009.87
2018-09-27T21:17:49.056Z,1009.88
2018-09-27T21:18:49.045Z,1009.89
2018-09-27T21:19:49.042Z,1009.89
2018-09-27T21:20:49.021Z,1009.91
2018-09-27T21:21:49.049Z,1009.94
2018-09-27T21:22:49.008Z,1009.93
2018-09-27T21:23:48.988Z,1009.90
2018-09-27T21:24:48.984Z,1009.93
2018-09-27T21:25:49.221Z,1009.88
2018-09-27T21:26:49.069Z,1009.95
2018-09-27T21:27:48.969Z,1009.90
2018-09-27T21:28:48.966Z,1009.90
2018-09-27T21:29:48.985Z,1009.92
2018-09-27T21:30:49.049Z,1009.93
2018-09-27T21:31:48.981Z,1009.93
2018-09-27T21:32:49.151Z,1009.89
2018-09-27T21:33:49.259Z,1009.91
2018-09-27T21:34:48.932Z,1009.92
2018-09-27T21:35:48.935Z,1009.88
2018-09-27T21:36:48.951Z,1009.99
2018-09-27T21:37:48.907Z,1009.89
2018-09-27T21:38:48.926Z,1009.93
2018-09-27T21:39:48.867Z,1009.86
2018-09-27T21:40:49.848Z,1009.89
2018-09-27T21:41:49.346Z,1009.92
2018-09-27T21:42:48.904Z,1009.89
2018-09-27T21:43:48.795Z,1009.94
2018-09-27T21:44:48.930Z,1009.95
2018-09-27T21:45:48.802Z,1009.93
2018-09-27T21:46:48.726Z,1009.98
2018-09-27T21:47:48.710Z,1009.95
2018-09-27T21:48:48.788Z,1009.95
2018-09-27T21:49:48.880Z,1009.97
2018-09-27T21:50:48.792Z,1010.01
2018-09-27T21:51:48.760Z,1010.00
2018-09-27T21:52:48.812Z,1009.97
2018-09-27T21:53:49.090Z,1010.01
2018-09-27T21:54:48.737Z,1009.99
2018-09-27T21:55:48.977Z,1010.00
2018-09-27T21:56:48.780Z,1009.98
2018-09-27T21:57:48.786Z,1009.94
2018-09-27T21:58:48.862Z,1009.91
2018-09-27T21:59:48.696Z,1009.90
2018-09-27T22:00:48.851Z,1009.92
2018-09-27T22:01:48.729Z,1009.89
2018-09-27T22:02:48.642Z,1009.92
2018-09-27T22:03:48.657Z,1009.90
2018-09-27T22:04:51.062Z,1009.91
2018-09-27T22:05:49.161Z,1009.90
2018-09-27T22:06:48.520Z,1009.92
2018-09-27T22:07:48.475Z,1009.86
2018-09-27T22:08:48.522Z,1009.93
2018-09-27T22:09:48.452Z,1009.94
2018-09-27T22:10:49.063Z,1009.89
2018-09-27T22:11:49.067Z,1009.92
2018-09-27T22:12:48.438Z,1009.87
2018-09-27T22:13:48.658Z,1009.86
2018-09-27T22:14:49.001Z,1009.89
2018-09-27T22:15:48.477Z,1009.91
2018-09-27T22:16:48.496Z,1009.87
2018-09-27T22:17:48.607Z,1009.89
2018-09-27T22:18:49.022Z,1009.86
2018-09-27T22:19:48.992Z,1009.93
2018-09-27T22:20:48.392Z,1009.88
2018-09-27T22:21:48.394Z,1009.96
2018-09-27T22:22:48.433Z,1009.92
2018-09-27T22:23:48.385Z,1009.90
2018-09-27T22:24:48.482Z,1009.92
2018-09-27T22:25:48.713Z,1009.94
2018-09-27T22:26:48.263Z,1009.85
2018-09-27T22:27:48.382Z,1009.91
2018-09-27T22:28:48.335Z,1009.91
2018-09-27T22:29:48.403Z,1009.91
2018-09-27T22:30:48.364Z,1009.92
2018-09-27T22:31:48.841Z,1009.93
2018-09-27T22:32:49.677Z,1009.92
2018-09-27T22:33:48.307Z,1009.90
2018-09-27T22:34:48.351Z,1009.91
2018-09-27T22:35:48.706Z,1009.97
2018-09-27T22:36:48.163Z,1009.95
2018-09-27T22:37:48.246Z,1009.90
2018-09-27T22:38:48.252Z,1009.86
2018-09-27T22:39:48.346Z,1009.87
2018-09-27T22:40:48.197Z,1009.91
2018-09-27T22:41:48.635Z,1009.85
2018-09-27T22:42:48.682Z,1009.86
2018-09-27T22:43:49.666Z,1009.89
2018-09-27T22:44:48.054Z,1009.88
2018-09-27T22:45:48.089Z,1009.89
2018-09-27T22:46:48.242Z,1009.87
2018-09-27T22:47:48.185Z,1009.86
2018-09-27T22:48:48.690Z,1009.86
2018-09-27T22:49:48.160Z,1009.86
2018-09-27T22:50:48.520Z,1009.84
2018-09-27T22:51:48.598Z,1009.86
2018-09-27T22:52:50.045Z,1009.83
2018-09-27T22:53:47.945Z,1009.82
2018-09-27T22:54:47.928Z,1009.81
2018-09-27T22:55:47.920Z,1009.86
2018-09-27T22:56:47.929Z,1009.83
2018-09-27T22:57:47.897Z,1009.83
2018-09-27T22:58:47.884Z,1009.83
2018-09-27T22:59:47.869Z,1009.75
2018-09-27T23:00:47.856Z,1009.76
2018-09-27T23:01:47.881Z,1009.78
2018-09-27T23:02:47.840Z,1009.69
2018-09-27T23:03:47.825Z,1009.70
2018-09-27T23:04:47.811Z,1009.68
2018-09-27T23:05:47.801Z,1009.72
2018-09-27T23:06:47.796Z,1009.67
2018-09-27T23:07:47.797Z,1009.74
2018-09-27T23:08:47.770Z,1009.72
2018-09-27T23:09:47.755Z,1009.75
2018-09-27T23:10:47.743Z,1009.70
2018-09-27T23:11:47.756Z,1009.70
2018-09-27T23:12:47.719Z,1009.69
2018-09-27T23:13:47.705Z,1009.64
2018-09-27T23:14:47.699Z,1009.66
2018-09-27T23:15:47.679Z,1009.69
2018-09-27T23:16:47.667Z,1009.71
2018-09-27T23:17:47.689Z,1009.65
2018-09-27T23:18:47.643Z,1009.70
2018-09-27T23:19:47.639Z,1009.69
2018-09-27T23:20:47.618Z,1009.72
2018-09-27T23:21:47.615Z,1009.71
2018-09-27T23:22:47.604Z,1009.72
2018-09-27T23:23:47.615Z,1009.73
2018-09-27T23:24:47.577Z,1009.72
2018-09-27T23:25:47.608Z,1009.72
2018-09-27T23:26:47.556Z,1009.75
2018-09-27T23:27:47.542Z,1009.70
2018-09-27T23:28:47.570Z,1009.68
2018-09-27T23:29:47.518Z,1009.71
2018-09-27T23:30:47.507Z,1009.71
2018-09-27T23:31:47.492Z,1009.69
2018-09-27T23:32:47.484Z,1009.70
2018-09-27T23:33:47.468Z,1009.64
2018-09-27T23:34:47.483Z,1009.68
2018-09-27T23:35:47.448Z,1009.68
2018-09-27T23:36:47.439Z,1009.69
2018-09-27T23:37:47.421Z,1009.73
2018-09-27T23:38:47.416Z,1009.69
2018-09-27T23:39:47.428Z,1009.76
2018-09-27T23:40:47.394Z,1009.72
2018-09-27T23:41:47.378Z,1009.75
2018-09-27T23:42:47.363Z,1009.69
2018-09-27T23:43:47.357Z,1009.66
2018-09-27T23:44:47.367Z,1009.57
2018-09-27T23:45:47.329Z,1009.59
2018-09-27T23:46:47.322Z,1009.59
2018-09-27T23:47:47.302Z,1009.59
2018-09-27T23:48:47.296Z,1009.66
2018-09-27T23:49:47.336Z,1009.65
2018-09-27T23:50:47.296Z,1009.70
2018-09-27T23:51:47.264Z,1009.63
2018-09-27T23:52:47.249Z,1009.70
2018-09-27T23:53:47.235Z,1009.69
2018-09-27T23:54:47.226Z,1009.63
2018-09-27T23:55:47.212Z,1009.66
2018-09-27T23:56:47.226Z,1009.66
2018-09-27T23:57:47.195Z,1009.66
2018-09-27T23:58:47.181Z,1009.71
2018-09-27T23:59:47.169Z,1009.76
